« 定点 富山空港 2021/7/16 fri | トップページ | 定点 富山空港 2021/7/17 sat »

2021/07/16

艦艇広報入港 七尾港 2021/7/16 fri

梅雨明けして、夏本番です。夏と言えば「艦艇広報」。毎年何が来るか楽しみにしていますが、昨今のコロナ禍で、一般公開は行われていません。しかし、自衛隊さんもリクルートが佳境で、特別公開と銘打って、入隊予定者や応募対象者に艦艇広報を行っています。

RJNW 160300Z 10006KT 050V160 9999 FEW025 BKN/// 30/22 Q1019

今年の石川地本は、七尾港で「おおよど」「うみたか」の二本立て。事前募集での特別公開は、明日と明後日です。

20210716_nanao_00pc828

とりあえずお昼過ぎから行けば、何か見れるかなと思っていたら・・・

20210716_nanao_01n487mc

GTI9162 KORD-RKSI N487MC B747-45EF

20210716_nanao_02pc828

矢田新に着いたら、もう観音崎を廻ったミサイル艇が見えてました。

20210716_nanao_03uw

歓迎信号旗

20210716_nanao_04pc828

艦番号がロービジ化されてます。

20210716_nanao_05pc828

観光船に乗れば、海上で見れたかな。

20210716_nanao_06pc828

PC828「わかたか」 第2ミサイル艇隊(舞鶴)

20210716_nanao_07pc828

もがみ型護衛艦が今年進水して、いよいよ世代交代に入っていきます。

RJNW 160400Z 11009KT 9999 FEW025 BKN/// 31/23 Q1018

20210716_nanao_08pc828

20210716_nanao_09pc828

大分前になりますが、ミサイル艇追っかけの少年がいたのですが、もう一端の大人になってるかな。

20210716_nanao_10pc828

艦名もロービジ

20210716_nanao_11pc828

接岸

20210716_nanao_12pc828

矢田新を後にして、もう一艦をお迎えに向かいます。

20210716_nanao_13ja957a

JA957A AW139 JCG 能登空港から離陸

20210716_nanao_14angela

ANGEL-A 5VEA8 TG 出船

RJNW 160500Z 08008KT 050V110 9999 FEW030 SCT/// 31/21 Q1018

20210716_nanao_15kanonzaki

能登観音崎灯台 電飾やら立見台やらベンチが増えてました。

20210716_nanao_16de231

先ほどのANGEL-Aが豆粒になった頃、見えてきました。

20210716_nanao_17de231

こちらも、いずれ「もがみ型」にとって代わられる艦

20210716_nanao_18de231

DE231「おおよど」 第15護衛隊(大湊)

20210716_nanao_19de231

あぶくま型護衛艦ですが、同型の「じんつう」は、なかなか見れないなぁ。

RJNW 160600Z 06006KT 020V120 9999 FEW030 SCT/// 30/20 Q1018

20210716_nanao_20de231

観音崎を廻って、七尾湾に入ります。

20210716_nanao_21de231

ブイを通過 矢田新に戻って到着を待ちます。

20210716_nanao_22tag

支援のタグが2艘 たか丸とさど丸

20210716_nanao_23de231

20210716_nanao_24de231

20210716_nanao_25de231

20210716_nanao_26de231

20210716_nanao_27de231

20210716_nanao_28de231

タグラインを取ります

20210716_nanao_29de231

デットスローで押せ

20210716_nanao_30de231

「わかたか」の後ろに入船で入ります。

20210716_nanao_31de231

20210716_nanao_32de231

着岸

20210716_nanao_33de231

20210716_nanao_34de231

RJNW 160700Z 07005KT 9999 FEW030 BKN/// 30/21 Q1018

20210716_nanao_35de231

20210716_nanao_36de231

はやぶさ+あぶくま/2=もがみ と言ったところ

20210716_nanao_37de231

20210716_nanao_38de231

たくさんの人が来艦するといいですね。

ちなみに、募集は終わっているので、いきなり行っても乗れません。

今回は、運良く2艦とも押さえられました。

20210716_nanao_39pc126

PC126「はまゆき」七尾海上保安部

|

« 定点 富山空港 2021/7/16 fri | トップページ | 定点 富山空港 2021/7/17 sat »

lighthouse」カテゴリの記事

海上自衛隊」カテゴリの記事

海上保安庁」カテゴリの記事

コメント

コメントを書く



(ウェブ上には掲載しません)


コメントは記事投稿者が公開するまで表示されません。



« 定点 富山空港 2021/7/16 fri | トップページ | 定点 富山空港 2021/7/17 sat »